TAM3691 SBPJ-SBBR
Flight info
| Callsign | TAM3691 |
|---|---|
| Flight time | 1h 5m |
| Altitude | 38000 |
| Route | EGDOD UZ26 PADIL |
| Aircraft | A319/M-SDE3FGHIRWY/LB1 |
Departure
| Time | 2026-04-20 18:35 |
|---|---|
| Airport | Brigadeiro Lysias Rodrigues Airport (SBPJ) |
Arrival
| Time | 2026-04-20 19:41 |
|---|---|
| Airport | Presidente Juscelino Kubitschek International Airport (SBBR) |
| Time | Latitude | Longitude | Altitude | Speed | Heading |
|---|---|---|---|---|---|
| 2026-04-20 18:14 | -10.29465 | -48.35774 | 757 ft | 0 kts | 212° |
| 2026-04-20 18:26 | -10.29451 | -48.35766 | 752 ft | 4 kts | 194° |
| 2026-04-20 18:26 | -10.29431 | -48.35768 | 756 ft | 3 kts | 125° |
| 2026-04-20 18:26 | -10.29429 | -48.35771 | 756 ft | 0 kts | 123° |
| 2026-04-20 18:29 | -10.29430 | -48.35766 | 755 ft | 2 kts | 105° |
| 2026-04-20 18:30 | -10.29425 | -48.35750 | 756 ft | 3 kts | 61° |
| 2026-04-20 18:30 | -10.29419 | -48.35726 | 758 ft | 4 kts | 96° |
| 2026-04-20 18:30 | -10.29432 | -48.35703 | 755 ft | 4 kts | 122° |
| 2026-04-20 18:30 | -10.29448 | -48.35678 | 759 ft | 4 kts | 124° |
| 2026-04-20 18:31 | -10.29465 | -48.35653 | 758 ft | 4 kts | 123° |
| 2026-04-20 18:31 | -10.29464 | -48.35620 | 760 ft | 6 kts | 62° |
| 2026-04-20 18:31 | -10.29421 | -48.35597 | 757 ft | 9 kts | 27° |
| 2026-04-20 18:31 | -10.29361 | -48.35559 | 757 ft | 11 kts | 34° |
| 2026-04-20 18:32 | -10.29298 | -48.35504 | 760 ft | 13 kts | 72° |
| 2026-04-20 18:32 | -10.29337 | -48.35423 | 762 ft | 13 kts | 124° |
| 2026-04-20 18:32 | -10.29389 | -48.35345 | 765 ft | 13 kts | 124° |
| 2026-04-20 18:32 | -10.29440 | -48.35268 | 767 ft | 13 kts | 123° |
| 2026-04-20 18:33 | -10.29493 | -48.35186 | 768 ft | 14 kts | 123° |
| 2026-04-20 18:33 | -10.29552 | -48.35098 | 770 ft | 16 kts | 123° |
| 2026-04-20 18:33 | -10.29613 | -48.35006 | 772 ft | 16 kts | 124° |
| 2026-04-20 18:33 | -10.29675 | -48.34912 | 774 ft | 17 kts | 122° |
| 2026-04-20 18:34 | -10.29721 | -48.34804 | 775 ft | 16 kts | 90° |
| 2026-04-20 18:34 | -10.29766 | -48.34766 | 777 ft | 13 kts | 253° |
| 2026-04-20 18:34 | -10.29751 | -48.34797 | 776 ft | 0 kts | 310° |
| 2026-04-20 18:34 | -10.29736 | -48.34819 | 775 ft | 11 kts | 304° |
| 2026-04-20 18:35 | -10.29571 | -48.35069 | 770 ft | 77 kts | 304° |
| 2026-04-20 18:35 | -10.29149 | -48.35707 | 752 ft | 138 kts | 303° |
| 2026-04-20 18:35 | -10.28568 | -48.36579 | 1112 ft | 151 kts | 304° |
| 2026-04-20 18:35 | -10.27961 | -48.37466 | 1657 ft | 153 kts | 303° |
| 2026-04-20 18:36 | -10.27374 | -48.38359 | 2079 ft | 157 kts | 302° |
| 2026-04-20 18:36 | -10.26733 | -48.39349 | 2297 ft | 179 kts | 301° |
| 2026-04-20 18:36 | -10.26000 | -48.40480 | 2615 ft | 203 kts | 303° |
| 2026-04-20 18:36 | -10.25267 | -48.41805 | 2918 ft | 229 kts | 285° |
| 2026-04-20 18:37 | -10.25369 | -48.43464 | 3383 ft | 252 kts | 245° |
| 2026-04-20 18:37 | -10.26544 | -48.44839 | 3959 ft | 268 kts | 211° |
| 2026-04-20 18:37 | -10.28236 | -48.45674 | 4826 ft | 273 kts | 200° |
| 2026-04-20 18:37 | -10.29997 | -48.46405 | 5765 ft | 279 kts | 200° |
| 2026-04-20 18:38 | -10.31813 | -48.47147 | 6658 ft | 284 kts | 199° |
| 2026-04-20 18:38 | -10.33663 | -48.47900 | 7525 ft | 288 kts | 200° |
| 2026-04-20 18:38 | -10.35537 | -48.48662 | 8412 ft | 291 kts | 200° |
| 2026-04-20 18:38 | -10.37434 | -48.49433 | 9283 ft | 295 kts | 200° |
| 2026-04-20 18:39 | -10.39355 | -48.50215 | 10106 ft | 300 kts | 200° |
| 2026-04-20 18:39 | -10.41360 | -48.51033 | 10415 ft | 322 kts | 200° |
| 2026-04-20 18:39 | -10.43487 | -48.51904 | 10890 ft | 334 kts | 200° |
| 2026-04-20 18:39 | -10.45662 | -48.52798 | 11550 ft | 339 kts | 201° |
| 2026-04-20 18:40 | -10.47862 | -48.53621 | 12232 ft | 343 kts | 192° |
| 2026-04-20 18:40 | -10.50241 | -48.53691 | 12875 ft | 346 kts | 168° |
| 2026-04-20 18:40 | -10.52457 | -48.52755 | 13536 ft | 349 kts | 144° |
| 2026-04-20 18:40 | -10.54258 | -48.51078 | 14142 ft | 352 kts | 134° |
| 2026-04-20 18:41 | -10.56200 | -48.49543 | 14714 ft | 357 kts | 149° |
| 2026-04-20 18:41 | -10.58429 | -48.48405 | 15321 ft | 359 kts | 154° |
| 2026-04-20 18:41 | -10.60713 | -48.47336 | 15924 ft | 362 kts | 156° |
| 2026-04-20 18:41 | -10.63035 | -48.46309 | 16520 ft | 365 kts | 157° |
| 2026-04-20 18:42 | -10.65356 | -48.45314 | 17096 ft | 368 kts | 157° |
| 2026-04-20 18:42 | -10.67735 | -48.44310 | 17674 ft | 371 kts | 158° |
| 2026-04-20 18:42 | -10.70129 | -48.43295 | 18230 ft | 374 kts | 157° |
| 2026-04-20 18:42 | -10.72542 | -48.42261 | 18730 ft | 377 kts | 157° |
| 2026-04-20 18:43 | -10.74966 | -48.41210 | 19238 ft | 379 kts | 157° |
| 2026-04-20 18:43 | -10.77402 | -48.40149 | 19732 ft | 382 kts | 157° |
| 2026-04-20 18:43 | -10.79852 | -48.39079 | 20256 ft | 384 kts | 157° |
| 2026-04-20 18:43 | -10.82319 | -48.38003 | 20737 ft | 387 kts | 157° |
| 2026-04-20 18:44 | -10.84773 | -48.36934 | 21208 ft | 390 kts | 157° |
| 2026-04-20 18:44 | -10.87277 | -48.35843 | 21715 ft | 392 kts | 157° |
| 2026-04-20 18:44 | -10.89796 | -48.34746 | 22204 ft | 394 kts | 157° |
| 2026-04-20 18:44 | -10.92330 | -48.33645 | 22652 ft | 398 kts | 157° |
| 2026-04-20 18:45 | -10.94915 | -48.32608 | 23127 ft | 400 kts | 163° |
| 2026-04-20 18:45 | -10.97633 | -48.31989 | 23599 ft | 401 kts | 173° |
| 2026-04-20 18:45 | -10.99483 | -48.31831 | 23857 ft | 402 kts | 176° |
| 2026-04-20 18:45 | -11.02291 | -48.31655 | 24249 ft | 405 kts | 176° |
| 2026-04-20 18:46 | -11.05116 | -48.31474 | 24657 ft | 406 kts | 176° |
| 2026-04-20 18:46 | -11.07943 | -48.31290 | 25064 ft | 407 kts | 176° |
| 2026-04-20 18:46 | -11.10785 | -48.31104 | 25473 ft | 409 kts | 176° |
| 2026-04-20 18:46 | -11.13627 | -48.30919 | 25881 ft | 410 kts | 176° |
| 2026-04-20 18:47 | -11.16476 | -48.30731 | 26288 ft | 411 kts | 176° |
| 2026-04-20 18:47 | -11.19339 | -48.30543 | 26677 ft | 413 kts | 176° |
| 2026-04-20 18:47 | -11.22183 | -48.30356 | 27064 ft | 414 kts | 176° |
| 2026-04-20 18:47 | -11.25067 | -48.30166 | 27451 ft | 415 kts | 176° |
| 2026-04-20 18:48 | -11.27957 | -48.29976 | 27840 ft | 416 kts | 176° |
| 2026-04-20 18:48 | -11.30860 | -48.29802 | 28241 ft | 417 kts | 177° |
| 2026-04-20 18:48 | -11.33768 | -48.29688 | 28622 ft | 419 kts | 178° |
| 2026-04-20 18:48 | -11.36652 | -48.29616 | 28995 ft | 420 kts | 179° |
| 2026-04-20 18:49 | -11.39594 | -48.29562 | 29373 ft | 422 kts | 179° |
| 2026-04-20 18:49 | -11.42546 | -48.29510 | 29743 ft | 423 kts | 179° |
| 2026-04-20 18:49 | -11.45497 | -48.29452 | 30081 ft | 425 kts | 179° |
| 2026-04-20 18:49 | -11.48469 | -48.29383 | 30375 ft | 427 kts | 179° |
| 2026-04-20 18:50 | -11.51410 | -48.29302 | 30654 ft | 429 kts | 179° |
| 2026-04-20 18:50 | -11.54410 | -48.29214 | 30933 ft | 431 kts | 179° |
| 2026-04-20 18:50 | -11.57418 | -48.29126 | 31205 ft | 433 kts | 179° |
| 2026-04-20 18:50 | -11.60454 | -48.29038 | 31480 ft | 435 kts | 179° |
| 2026-04-20 18:51 | -11.63456 | -48.28953 | 31801 ft | 436 kts | 179° |
| 2026-04-20 18:51 | -11.66486 | -48.28870 | 32198 ft | 435 kts | 179° |
| 2026-04-20 18:51 | -11.69509 | -48.28791 | 32597 ft | 434 kts | 179° |
| 2026-04-20 18:51 | -11.72542 | -48.28712 | 32998 ft | 433 kts | 179° |
| 2026-04-20 18:52 | -11.75557 | -48.28632 | 33415 ft | 433 kts | 179° |
| 2026-04-20 18:52 | -11.78570 | -48.28550 | 33843 ft | 432 kts | 179° |
| 2026-04-20 18:52 | -11.81576 | -48.28469 | 34196 ft | 432 kts | 180° |
| 2026-04-20 18:52 | -11.84540 | -48.28390 | 34555 ft | 431 kts | 180° |
| 2026-04-20 18:53 | -11.87542 | -48.28307 | 34913 ft | 430 kts | 180° |
| 2026-04-20 18:53 | -11.90536 | -48.28225 | 35269 ft | 429 kts | 180° |
| 2026-04-20 18:53 | -11.93530 | -48.28140 | 35617 ft | 428 kts | 180° |
| 2026-04-20 18:53 | -11.96510 | -48.28055 | 35968 ft | 428 kts | 180° |
| 2026-04-20 18:54 | -11.99446 | -48.27974 | 36314 ft | 427 kts | 180° |
| 2026-04-20 18:54 | -12.02420 | -48.27895 | 36651 ft | 426 kts | 180° |
| 2026-04-20 18:54 | -12.05384 | -48.27816 | 36985 ft | 425 kts | 180° |
| 2026-04-20 18:54 | -12.08341 | -48.27734 | 37318 ft | 424 kts | 180° |
| 2026-04-20 18:55 | -12.11296 | -48.27647 | 37683 ft | 423 kts | 180° |
| 2026-04-20 18:55 | -12.14234 | -48.27563 | 37863 ft | 422 kts | 180° |
| 2026-04-20 18:55 | -12.20072 | -48.27403 | 37886 ft | 422 kts | 180° |
| 2026-04-20 18:56 | -12.25946 | -48.27246 | 37886 ft | 421 kts | 181° |
| 2026-04-20 18:56 | -12.31815 | -48.27087 | 37887 ft | 421 kts | 180° |
| 2026-04-20 18:57 | -12.37679 | -48.26928 | 37880 ft | 421 kts | 181° |
| 2026-04-20 18:57 | -12.43528 | -48.26791 | 37879 ft | 419 kts | 184° |
| 2026-04-20 18:58 | -12.49272 | -48.27497 | 37886 ft | 418 kts | 189° |
| 2026-04-20 18:58 | -12.55030 | -48.28304 | 37881 ft | 418 kts | 189° |
| 2026-04-20 18:59 | -12.60797 | -48.29101 | 37881 ft | 418 kts | 189° |
| 2026-04-20 18:59 | -12.66534 | -48.29903 | 37894 ft | 417 kts | 190° |
| 2026-04-20 19:00 | -12.72281 | -48.30713 | 37894 ft | 416 kts | 190° |
| 2026-04-20 19:00 | -12.78023 | -48.31522 | 37897 ft | 416 kts | 190° |
| 2026-04-20 19:01 | -12.83761 | -48.32319 | 37895 ft | 416 kts | 189° |
| 2026-04-20 19:01 | -12.89497 | -48.33119 | 37892 ft | 416 kts | 190° |
| 2026-04-20 19:02 | -12.95230 | -48.33927 | 37895 ft | 415 kts | 190° |
| 2026-04-20 19:02 | -13.00926 | -48.34728 | 37898 ft | 415 kts | 190° |
| 2026-04-20 19:03 | -13.06654 | -48.35528 | 37893 ft | 415 kts | 190° |
| 2026-04-20 19:03 | -13.12375 | -48.36333 | 37891 ft | 415 kts | 190° |
| 2026-04-20 19:04 | -13.18107 | -48.37140 | 37893 ft | 414 kts | 190° |
| 2026-04-20 19:04 | -13.23789 | -48.37945 | 37898 ft | 414 kts | 191° |
| 2026-04-20 19:05 | -13.29511 | -48.38750 | 37897 ft | 414 kts | 190° |
| 2026-04-20 19:05 | -13.35234 | -48.39543 | 37900 ft | 414 kts | 190° |
| 2026-04-20 19:06 | -13.40908 | -48.40335 | 37895 ft | 414 kts | 191° |
| 2026-04-20 19:06 | -13.46622 | -48.41146 | 37904 ft | 414 kts | 191° |
| 2026-04-20 19:07 | -13.52310 | -48.41951 | 37904 ft | 414 kts | 191° |
| 2026-04-20 19:07 | -13.58021 | -48.42750 | 37904 ft | 414 kts | 191° |
| 2026-04-20 19:08 | -13.66581 | -48.43959 | 37901 ft | 413 kts | 191° |
| 2026-04-20 19:09 | -13.72245 | -48.44764 | 37901 ft | 413 kts | 191° |
| 2026-04-20 19:09 | -13.77953 | -48.45571 | 37909 ft | 413 kts | 191° |
| 2026-04-20 19:10 | -13.83651 | -48.46373 | 37909 ft | 412 kts | 191° |
| 2026-04-20 19:10 | -13.89300 | -48.47176 | 37907 ft | 412 kts | 191° |
| 2026-04-20 19:11 | -13.94985 | -48.47977 | 37911 ft | 412 kts | 191° |
| 2026-04-20 19:11 | -14.00680 | -48.48778 | 37907 ft | 412 kts | 191° |
| 2026-04-20 19:12 | -14.06324 | -48.49577 | 37914 ft | 411 kts | 191° |
| 2026-04-20 19:12 | -14.11993 | -48.50382 | 37913 ft | 411 kts | 191° |
| 2026-04-20 19:13 | -14.17662 | -48.51177 | 37911 ft | 411 kts | 191° |
| 2026-04-20 19:13 | -14.23338 | -48.51936 | 37910 ft | 411 kts | 191° |
| 2026-04-20 19:14 | -14.29018 | -48.52680 | 37907 ft | 411 kts | 191° |
| 2026-04-20 19:14 | -14.34656 | -48.53415 | 37903 ft | 410 kts | 191° |
| 2026-04-20 19:15 | -14.40329 | -48.54160 | 37903 ft | 410 kts | 191° |
| 2026-04-20 19:15 | -14.46008 | -48.54915 | 37903 ft | 410 kts | 191° |
| 2026-04-20 19:16 | -14.51641 | -48.55662 | 37905 ft | 410 kts | 191° |
| 2026-04-20 19:16 | -14.57320 | -48.56411 | 37918 ft | 410 kts | 191° |
| 2026-04-20 19:17 | -14.62989 | -48.57160 | 37916 ft | 410 kts | 191° |
| 2026-04-20 19:17 | -14.65816 | -48.57536 | 37480 ft | 412 kts | 191° |
| 2026-04-20 19:17 | -14.68717 | -48.57927 | 36317 ft | 427 kts | 191° |
| 2026-04-20 19:17 | -14.71659 | -48.58325 | 35594 ft | 432 kts | 190° |
| 2026-04-20 19:18 | -14.74624 | -48.58720 | 35164 ft | 427 kts | 190° |
| 2026-04-20 19:18 | -14.77562 | -48.59109 | 34718 ft | 423 kts | 190° |
| 2026-04-20 19:18 | -14.80472 | -48.59494 | 34279 ft | 419 kts | 190° |
| 2026-04-20 19:18 | -14.83358 | -48.59879 | 33813 ft | 416 kts | 190° |
| 2026-04-20 19:19 | -14.86229 | -48.60263 | 33339 ft | 412 kts | 190° |
| 2026-04-20 19:19 | -14.89061 | -48.60642 | 32889 ft | 408 kts | 190° |
| 2026-04-20 19:19 | -14.91828 | -48.61009 | 32457 ft | 404 kts | 190° |
| 2026-04-20 19:19 | -14.94599 | -48.61374 | 32024 ft | 399 kts | 190° |
| 2026-04-20 19:20 | -14.97344 | -48.61737 | 31599 ft | 395 kts | 190° |
| 2026-04-20 19:20 | -15.00081 | -48.61932 | 31178 ft | 394 kts | 181° |
| 2026-04-20 19:20 | -15.02808 | -48.61626 | 30768 ft | 394 kts | 172° |
| 2026-04-20 19:20 | -15.05442 | -48.60811 | 30354 ft | 396 kts | 162° |
| 2026-04-20 19:21 | -15.07926 | -48.59584 | 29953 ft | 395 kts | 157° |
| 2026-04-20 19:21 | -15.10372 | -48.58312 | 29514 ft | 391 kts | 157° |
| 2026-04-20 19:21 | -15.12764 | -48.57075 | 29143 ft | 386 kts | 158° |
| 2026-04-20 19:21 | -15.15165 | -48.55838 | 28772 ft | 382 kts | 158° |
| 2026-04-20 19:22 | -15.17538 | -48.54620 | 28399 ft | 379 kts | 157° |
| 2026-04-20 19:22 | -15.19891 | -48.53409 | 28036 ft | 376 kts | 157° |
| 2026-04-20 19:22 | -15.22223 | -48.52204 | 27679 ft | 372 kts | 157° |
| 2026-04-20 19:22 | -15.24533 | -48.51005 | 27319 ft | 369 kts | 156° |
| 2026-04-20 19:23 | -15.26825 | -48.49817 | 26950 ft | 366 kts | 156° |
| 2026-04-20 19:23 | -15.29073 | -48.48654 | 26588 ft | 363 kts | 156° |
| 2026-04-20 19:23 | -15.31332 | -48.47485 | 26224 ft | 360 kts | 156° |
| 2026-04-20 19:23 | -15.33566 | -48.46328 | 25855 ft | 357 kts | 156° |
| 2026-04-20 19:24 | -15.35780 | -48.45181 | 25485 ft | 354 kts | 156° |
| 2026-04-20 19:24 | -15.37958 | -48.44055 | 25108 ft | 352 kts | 156° |
| 2026-04-20 19:24 | -15.40146 | -48.42924 | 24738 ft | 350 kts | 155° |
| 2026-04-20 19:24 | -15.42321 | -48.41799 | 24357 ft | 348 kts | 155° |
| 2026-04-20 19:25 | -15.44488 | -48.40676 | 23971 ft | 347 kts | 155° |
| 2026-04-20 19:25 | -15.46640 | -48.39559 | 23593 ft | 345 kts | 155° |
| 2026-04-20 19:25 | -15.48788 | -48.38444 | 23168 ft | 344 kts | 154° |
| 2026-04-20 19:25 | -15.50894 | -48.37350 | 22788 ft | 340 kts | 154° |
| 2026-04-20 19:26 | -15.53002 | -48.36255 | 22410 ft | 337 kts | 154° |
| 2026-04-20 19:26 | -15.55096 | -48.35167 | 22035 ft | 334 kts | 154° |
| 2026-04-20 19:26 | -15.57166 | -48.34093 | 21665 ft | 331 kts | 154° |
| 2026-04-20 19:26 | -15.59222 | -48.33026 | 21292 ft | 329 kts | 154° |
| 2026-04-20 19:27 | -15.61272 | -48.31959 | 20926 ft | 327 kts | 154° |
| 2026-04-20 19:27 | -15.63278 | -48.30917 | 20573 ft | 325 kts | 154° |
| 2026-04-20 19:27 | -15.65304 | -48.29866 | 20201 ft | 323 kts | 154° |
| 2026-04-20 19:27 | -15.67316 | -48.28820 | 19845 ft | 322 kts | 153° |
| 2026-04-20 19:28 | -15.69316 | -48.27778 | 19492 ft | 321 kts | 153° |
| 2026-04-20 19:28 | -15.71287 | -48.26752 | 19138 ft | 319 kts | 153° |
| 2026-04-20 19:28 | -15.73278 | -48.25718 | 18784 ft | 318 kts | 153° |
| 2026-04-20 19:28 | -15.75251 | -48.24674 | 18431 ft | 317 kts | 149° |
| 2026-04-20 19:29 | -15.76946 | -48.23232 | 18054 ft | 315 kts | 130° |
| 2026-04-20 19:29 | -15.78070 | -48.21325 | 17704 ft | 314 kts | 112° |
| 2026-04-20 19:29 | -15.78542 | -48.19122 | 17359 ft | 312 kts | 93° |
| 2026-04-20 19:29 | -15.78441 | -48.16868 | 17014 ft | 311 kts | 87° |
| 2026-04-20 19:30 | -15.78292 | -48.14630 | 16671 ft | 309 kts | 88° |
| 2026-04-20 19:30 | -15.78153 | -48.12406 | 16331 ft | 307 kts | 87° |
| 2026-04-20 19:30 | -15.78017 | -48.10221 | 15996 ft | 306 kts | 88° |
| 2026-04-20 19:30 | -15.77881 | -48.08017 | 15659 ft | 305 kts | 88° |
| 2026-04-20 19:31 | -15.77743 | -48.05819 | 15320 ft | 304 kts | 88° |
| 2026-04-20 19:31 | -15.77603 | -48.03630 | 14978 ft | 303 kts | 87° |
| 2026-04-20 19:31 | -15.77462 | -48.01447 | 14637 ft | 303 kts | 87° |
| 2026-04-20 19:31 | -15.77319 | -47.99263 | 14298 ft | 302 kts | 86° |
| 2026-04-20 19:32 | -15.77226 | -47.97819 | 14071 ft | 302 kts | 86° |
| 2026-04-20 19:32 | -15.77042 | -47.94944 | 13589 ft | 301 kts | 87° |
| 2026-04-20 19:32 | -15.76906 | -47.92803 | 13419 ft | 293 kts | 87° |
| 2026-04-20 19:32 | -15.76774 | -47.90709 | 13166 ft | 288 kts | 87° |
| 2026-04-20 19:33 | -15.76642 | -47.88648 | 12909 ft | 285 kts | 87° |
| 2026-04-20 19:33 | -15.76509 | -47.86582 | 12459 ft | 288 kts | 86° |
| 2026-04-20 19:33 | -15.76419 | -47.85216 | 12294 ft | 285 kts | 87° |
| 2026-04-20 19:33 | -15.76239 | -47.82482 | 11732 ft | 282 kts | 88° |
| 2026-04-20 19:34 | -15.76151 | -47.81142 | 11280 ft | 281 kts | 87° |
| 2026-04-20 19:34 | -15.76018 | -47.79124 | 10770 ft | 279 kts | 87° |
| 2026-04-20 19:34 | -15.75887 | -47.77120 | 10282 ft | 277 kts | 88° |
| 2026-04-20 19:34 | -15.75755 | -47.75130 | 9810 ft | 275 kts | 88° |
| 2026-04-20 19:35 | -15.75626 | -47.73156 | 9205 ft | 276 kts | 88° |
| 2026-04-20 19:35 | -15.75497 | -47.71153 | 8545 ft | 279 kts | 87° |
| 2026-04-20 19:35 | -15.75638 | -47.69219 | 8276 ft | 261 kts | 112° |
| 2026-04-20 19:35 | -15.76701 | -47.67823 | 8133 ft | 241 kts | 150° |
| 2026-04-20 19:36 | -15.78287 | -47.67410 | 7752 ft | 243 kts | 185° |
| 2026-04-20 19:36 | -15.79843 | -47.68096 | 7225 ft | 256 kts | 216° |
| 2026-04-20 19:36 | -15.81238 | -47.69262 | 6720 ft | 257 kts | 219° |
| 2026-04-20 19:36 | -15.82619 | -47.70439 | 6229 ft | 256 kts | 218° |
| 2026-04-20 19:37 | -15.83943 | -47.71652 | 5907 ft | 248 kts | 228° |
| 2026-04-20 19:37 | -15.84817 | -47.73120 | 5878 ft | 231 kts | 247° |
| 2026-04-20 19:37 | -15.85183 | -47.74722 | 5885 ft | 228 kts | 266° |
| 2026-04-20 19:37 | -15.85286 | -47.76355 | 5779 ft | 230 kts | 265° |
| 2026-04-20 19:38 | -15.85395 | -47.77974 | 5535 ft | 219 kts | 265° |
| 2026-04-20 19:38 | -15.85496 | -47.79507 | 5315 ft | 206 kts | 265° |
| 2026-04-20 19:38 | -15.85590 | -47.80940 | 5036 ft | 191 kts | 265° |
| 2026-04-20 19:38 | -15.85677 | -47.82272 | 4939 ft | 178 kts | 265° |
| 2026-04-20 19:39 | -15.85756 | -47.83486 | 4724 ft | 161 kts | 265° |
| 2026-04-20 19:39 | -15.85829 | -47.84611 | 4520 ft | 154 kts | 265° |
| 2026-04-20 19:39 | -15.85900 | -47.85700 | 4329 ft | 151 kts | 267° |
| 2026-04-20 19:39 | -15.85977 | -47.86780 | 4107 ft | 147 kts | 265° |
| 2026-04-20 19:40 | -15.86045 | -47.87825 | 3895 ft | 143 kts | 268° |
| 2026-04-20 19:40 | -15.86111 | -47.88858 | 3710 ft | 144 kts | 266° |
| 2026-04-20 19:40 | -15.86175 | -47.89897 | 3527 ft | 144 kts | 266° |
| 2026-04-20 19:40 | -15.86235 | -47.90848 | 3475 ft | 114 kts | 266° |
| 2026-04-20 19:41 | -15.86277 | -47.91495 | 3472 ft | 65 kts | 266° |
| 2026-04-20 19:41 | -15.86298 | -47.91803 | 3472 ft | 37 kts | 266° |
| 2026-04-20 19:41 | -15.86310 | -47.91991 | 3473 ft | 26 kts | 263° |
| 2026-04-20 19:41 | -15.86359 | -47.92125 | 3471 ft | 17 kts | 235° |
| 2026-04-20 19:42 | -15.86416 | -47.92212 | 3472 ft | 12 kts | 236° |
| 2026-04-20 19:42 | -15.86463 | -47.92284 | 3471 ft | 7 kts | 235° |
| 2026-04-20 19:42 | -15.86500 | -47.92323 | 3471 ft | 8 kts | 205° |
| 2026-04-20 19:42 | -15.86559 | -47.92309 | 3470 ft | 10 kts | 148° |
| 2026-04-20 19:43 | -15.86588 | -47.92270 | 3470 ft | 11 kts | 116° |
| 2026-04-20 19:43 | -15.86632 | -47.92163 | 3470 ft | 12 kts | 102° |
| 2026-04-20 19:43 | -15.86629 | -47.92074 | 3470 ft | 13 kts | 86° |
| 2026-04-20 19:43 | -15.86625 | -47.91991 | 3470 ft | 8 kts | 85° |
| 2026-04-20 19:44 | -15.86621 | -47.91924 | 3470 ft | 10 kts | 86° |
| 2026-04-20 19:44 | -15.86623 | -47.91853 | 3470 ft | 7 kts | 118° |
| 2026-04-20 19:44 | -15.86672 | -47.91846 | 3470 ft | 8 kts | 179° |
| 2026-04-20 19:44 | -15.86703 | -47.91843 | 3470 ft | 2 kts | 174° |
| 2026-04-20 19:45 | -15.86707 | -47.91842 | 3470 ft | 0 kts | 174° |